Terminal Aerodrome Forecast
Issued by NWS

Home | Current Version | Previous Version | Text Only | Print | Product List | Glossary On
Versions: 1 2 3 4 5 6 7 8 9 10 11 12 13 14 15 16
000
FTUS45 KABQ 032342
TAFLVS
TAF
KLVS 032342Z 0400/0424 24015KT P6SM SCT070
     FM040200 21010KT P6SM BKN120
     FM040800 18007KT P6SM BKN080
     FM041600 22016G26KT P6SM SCT070
     FM041900 22020G30KT P6SM VCTS BKN070CB=

USA.gov is the U.S. government's official web portal to all federal, state and local government web resources and services.